sensor_id;sensor_type;location;lat;lon;timestamp;P1;durP1;ratioP1;P2;durP2;ratioP2
5026;SDS011;2532;52.480;13.354;2023-12-07T00:01:33;27.93;;;15.50;;
5026;SDS011;2532;52.480;13.354;2023-12-07T00:04:00;27.60;;;15.77;;
5026;SDS011;2532;52.480;13.354;2023-12-07T00:06:27;29.20;;;16.40;;
5026;SDS011;2532;52.480;13.354;2023-12-07T00:08:54;26.27;;;14.53;;
5026;SDS011;2532;52.480;13.354;2023-12-07T00:11:23;22.30;;;14.10;;
5026;SDS011;2532;52.480;13.354;2023-12-07T00:13:50;30.23;;;15.07;;
5026;SDS011;2532;52.480;13.354;2023-12-07T00:16:19;32.33;;;18.00;;
5026;SDS011;2532;52.480;13.354;2023-12-07T00:18:46;25.90;;;15.40;;
5026;SDS011;2532;52.480;13.354;2023-12-07T00:21:12;28.60;;;18.10;;
5026;SDS011;2532;52.480;13.354;2023-12-07T00:23:39;26.87;;;16.07;;
5026;SDS011;2532;52.480;13.354;2023-12-07T00:26:06;29.30;;;16.40;;
5026;SDS011;2532;52.480;13.354;2023-12-07T00:28:36;25.60;;;14.63;;
5026;SDS011;2532;52.480;13.354;2023-12-07T00:31:03;30.10;;;15.37;;
5026;SDS011;2532;52.480;13.354;2023-12-07T00:33:31;23.73;;;14.70;;
5026;SDS011;2532;52.480;13.354;2023-12-07T00:35:58;29.13;;;17.53;;
5026;SDS011;2532;52.480;13.354;2023-12-07T00:38:25;27.87;;;16.83;;
5026;SDS011;2532;52.480;13.354;2023-12-07T00:40:52;26.67;;;16.40;;
5026;SDS011;2532;52.480;13.354;2023-12-07T00:43:19;27.37;;;16.30;;
5026;SDS011;2532;52.480;13.354;2023-12-07T00:45:46;24.50;;;14.40;;
5026;SDS011;2532;52.480;13.354;2023-12-07T00:48:13;26.20;;;15.50;;
5026;SDS011;2532;52.480;13.354;2023-12-07T00:50:42;26.30;;;15.00;;
5026;SDS011;2532;52.480;13.354;2023-12-07T00:53:10;29.20;;;18.33;;
5026;SDS011;2532;52.480;13.354;2023-12-07T00:55:38;28.53;;;18.27;;
5026;SDS011;2532;52.480;13.354;2023-12-07T00:58:07;27.63;;;17.13;;
5026;SDS011;2532;52.480;13.354;2023-12-07T01:00:34;28.93;;;17.13;;
5026;SDS011;2532;52.480;13.354;2023-12-07T01:03:02;28.37;;;17.20;;
5026;SDS011;2532;52.480;13.354;2023-12-07T01:05:32;25.93;;;16.40;;
5026;SDS011;2532;52.480;13.354;2023-12-07T01:08:00;24.37;;;14.63;;
5026;SDS011;2532;52.480;13.354;2023-12-07T01:10:30;25.90;;;16.23;;
5026;SDS011;2532;52.480;13.354;2023-12-07T01:13:00;28.30;;;15.43;;
5026;SDS011;2532;52.480;13.354;2023-12-07T01:15:27;28.60;;;17.13;;
5026;SDS011;2532;52.480;13.354;2023-12-07T01:17:56;22.73;;;13.90;;
5026;SDS011;2532;52.480;13.354;2023-12-07T01:20:23;30.33;;;16.33;;
5026;SDS011;2532;52.480;13.354;2023-12-07T01:22:50;25.23;;;15.10;;
5026;SDS011;2532;52.480;13.354;2023-12-07T01:25:18;27.37;;;16.40;;
5026;SDS011;2532;52.480;13.354;2023-12-07T01:27:48;35.63;;;21.43;;
5026;SDS011;2532;52.480;13.354;2023-12-07T01:30:15;25.97;;;15.30;;
5026;SDS011;2532;52.480;13.354;2023-12-07T01:32:42;29.93;;;17.27;;
5026;SDS011;2532;52.480;13.354;2023-12-07T01:35:10;30.70;;;19.10;;
5026;SDS011;2532;52.480;13.354;2023-12-07T01:37:37;33.40;;;16.93;;
5026;SDS011;2532;52.480;13.354;2023-12-07T01:40:05;37.87;;;19.60;;
5026;SDS011;2532;52.480;13.354;2023-12-07T01:42:36;30.43;;;19.17;;
5026;SDS011;2532;52.480;13.354;2023-12-07T01:45:04;31.63;;;18.40;;
5026;SDS011;2532;52.480;13.354;2023-12-07T01:47:32;24.60;;;14.00;;
5026;SDS011;2532;52.480;13.354;2023-12-07T01:50:01;28.53;;;15.57;;
5026;SDS011;2532;52.480;13.354;2023-12-07T01:52:31;31.70;;;19.37;;
5026;SDS011;2532;52.480;13.354;2023-12-07T01:55:00;33.50;;;19.73;;
5026;SDS011;2532;52.480;13.354;2023-12-07T01:57:28;37.37;;;18.57;;
5026;SDS011;2532;52.480;13.354;2023-12-07T01:59:56;36.83;;;18.77;;
5026;SDS011;2532;52.480;13.354;2023-12-07T02:02:24;31.20;;;17.33;;
5026;SDS011;2532;52.480;13.354;2023-12-07T02:04:51;31.97;;;16.60;;
5026;SDS011;2532;52.480;13.354;2023-12-07T02:07:18;28.20;;;15.93;;
5026;SDS011;2532;52.480;13.354;2023-12-07T02:09:47;30.63;;;17.13;;
5026;SDS011;2532;52.480;13.354;2023-12-07T02:12:15;36.03;;;17.73;;
5026;SDS011;2532;52.480;13.354;2023-12-07T02:14:44;29.97;;;16.33;;
5026;SDS011;2532;52.480;13.354;2023-12-07T02:17:16;29.53;;;16.13;;
5026;SDS011;2532;52.480;13.354;2023-12-07T02:19:52;31.57;;;16.80;;
5026;SDS011;2532;52.480;13.354;2023-12-07T02:22:25;26.60;;;15.70;;
5026;SDS011;2532;52.480;13.354;2023-12-07T02:25:00;29.23;;;18.40;;
5026;SDS011;2532;52.480;13.354;2023-12-07T02:27:34;26.23;;;16.03;;
5026;SDS011;2532;52.480;13.354;2023-12-07T02:30:03;29.90;;;18.93;;
5026;SDS011;2532;52.480;13.354;2023-12-07T02:32:31;29.80;;;19.50;;
5026;SDS011;2532;52.480;13.354;2023-12-07T02:34:59;28.73;;;15.83;;
5026;SDS011;2532;52.480;13.354;2023-12-07T02:37:27;25.80;;;15.10;;
5026;SDS011;2532;52.480;13.354;2023-12-07T02:39:56;27.60;;;15.50;;
5026;SDS011;2532;52.480;13.354;2023-12-07T02:42:24;26.20;;;15.37;;
5026;SDS011;2532;52.480;13.354;2023-12-07T02:44:54;25.90;;;14.80;;
5026;SDS011;2532;52.480;13.354;2023-12-07T02:47:21;27.30;;;15.83;;
5026;SDS011;2532;52.480;13.354;2023-12-07T02:49:48;30.47;;;15.27;;
5026;SDS011;2532;52.480;13.354;2023-12-07T02:52:15;27.03;;;16.00;;
5026;SDS011;2532;52.480;13.354;2023-12-07T02:54:42;27.73;;;15.10;;
5026;SDS011;2532;52.480;13.354;2023-12-07T02:57:09;27.77;;;15.47;;
5026;SDS011;2532;52.480;13.354;2023-12-07T02:59:36;24.10;;;15.53;;
5026;SDS011;2532;52.480;13.354;2023-12-07T03:02:05;28.30;;;16.03;;
5026;SDS011;2532;52.480;13.354;2023-12-07T03:04:32;24.93;;;14.93;;
5026;SDS011;2532;52.480;13.354;2023-12-07T03:06:59;27.20;;;14.50;;
5026;SDS011;2532;52.480;13.354;2023-12-07T03:09:26;31.27;;;17.50;;
5026;SDS011;2532;52.480;13.354;2023-12-07T03:11:53;23.90;;;16.47;;
5026;SDS011;2532;52.480;13.354;2023-12-07T03:14:20;27.37;;;16.90;;
5026;SDS011;2532;52.480;13.354;2023-12-07T03:16:49;30.00;;;19.47;;
5026;SDS011;2532;52.480;13.354;2023-12-07T03:19:17;26.43;;;14.60;;
5026;SDS011;2532;52.480;13.354;2023-12-07T03:21:44;26.67;;;16.00;;
5026;SDS011;2532;52.480;13.354;2023-12-07T03:24:11;29.97;;;15.90;;
5026;SDS011;2532;52.480;13.354;2023-12-07T03:26:38;30.70;;;18.63;;
5026;SDS011;2532;52.480;13.354;2023-12-07T03:29:05;30.43;;;18.33;;
5026;SDS011;2532;52.480;13.354;2023-12-07T03:31:32;33.03;;;21.40;;
5026;SDS011;2532;52.480;13.354;2023-12-07T03:33:59;31.30;;;19.50;;
5026;SDS011;2532;52.480;13.354;2023-12-07T03:36:28;32.17;;;20.90;;
5026;SDS011;2532;52.480;13.354;2023-12-07T03:38:57;31.20;;;19.63;;
5026;SDS011;2532;52.480;13.354;2023-12-07T03:41:23;33.07;;;21.27;;
5026;SDS011;2532;52.480;13.354;2023-12-07T03:43:50;30.73;;;18.53;;
5026;SDS011;2532;52.480;13.354;2023-12-07T03:46:17;30.20;;;16.50;;
5026;SDS011;2532;52.480;13.354;2023-12-07T03:48:44;28.73;;;17.20;;
5026;SDS011;2532;52.480;13.354;2023-12-07T03:51:12;32.20;;;17.90;;
5026;SDS011;2532;52.480;13.354;2023-12-07T03:53:42;35.90;;;19.40;;
5026;SDS011;2532;52.480;13.354;2023-12-07T03:56:22;31.17;;;18.27;;
5026;SDS011;2532;52.480;13.354;2023-12-07T03:58:49;33.00;;;18.33;;
5026;SDS011;2532;52.480;13.354;2023-12-07T04:01:16;38.27;;;23.23;;
5026;SDS011;2532;52.480;13.354;2023-12-07T04:03:44;38.43;;;22.57;;
5026;SDS011;2532;52.480;13.354;2023-12-07T04:06:11;39.83;;;23.37;;
5026;SDS011;2532;52.480;13.354;2023-12-07T04:08:38;40.67;;;23.27;;
5026;SDS011;2532;52.480;13.354;2023-12-07T04:11:08;33.47;;;19.57;;
5026;SDS011;2532;52.480;13.354;2023-12-07T04:13:34;36.73;;;19.73;;
5026;SDS011;2532;52.480;13.354;2023-12-07T04:16:01;34.90;;;20.50;;
5026;SDS011;2532;52.480;13.354;2023-12-07T04:18:29;34.10;;;19.97;;
5026;SDS011;2532;52.480;13.354;2023-12-07T04:20:56;36.33;;;18.93;;
5026;SDS011;2532;52.480;13.354;2023-12-07T04:23:23;33.37;;;19.70;;
5026;SDS011;2532;52.480;13.354;2023-12-07T04:25:50;41.53;;;22.97;;
5026;SDS011;2532;52.480;13.354;2023-12-07T04:28:18;38.47;;;20.57;;
5026;SDS011;2532;52.480;13.354;2023-12-07T04:30:45;36.43;;;20.30;;
5026;SDS011;2532;52.480;13.354;2023-12-07T04:33:12;38.80;;;20.40;;
5026;SDS011;2532;52.480;13.354;2023-12-07T04:35:39;36.07;;;19.70;;
5026;SDS011;2532;52.480;13.354;2023-12-07T04:38:06;38.07;;;23.40;;
5026;SDS011;2532;52.480;13.354;2023-12-07T04:40:33;38.97;;;20.90;;
5026;SDS011;2532;52.480;13.354;2023-12-07T04:43:00;40.93;;;19.87;;
5026;SDS011;2532;52.480;13.354;2023-12-07T04:45:28;39.13;;;21.07;;
5026;SDS011;2532;52.480;13.354;2023-12-07T04:47:55;37.70;;;20.47;;
5026;SDS011;2532;52.480;13.354;2023-12-07T04:50:23;41.23;;;22.20;;
5026;SDS011;2532;52.480;13.354;2023-12-07T04:52:50;39.63;;;20.40;;
5026;SDS011;2532;52.480;13.354;2023-12-07T04:55:16;40.33;;;21.70;;
5026;SDS011;2532;52.480;13.354;2023-12-07T04:57:44;37.40;;;20.80;;
5026;SDS011;2532;52.480;13.354;2023-12-07T05:00:14;44.00;;;20.13;;
5026;SDS011;2532;52.480;13.354;2023-12-07T05:02:43;38.77;;;19.90;;
5026;SDS011;2532;52.480;13.354;2023-12-07T05:05:09;35.13;;;18.67;;
5026;SDS011;2532;52.480;13.354;2023-12-07T05:07:36;36.80;;;19.30;;
5026;SDS011;2532;52.480;13.354;2023-12-07T05:10:04;43.30;;;21.37;;
5026;SDS011;2532;52.480;13.354;2023-12-07T05:12:34;46.10;;;20.00;;
5026;SDS011;2532;52.480;13.354;2023-12-07T05:15:01;37.40;;;18.20;;
5026;SDS011;2532;52.480;13.354;2023-12-07T05:17:29;42.00;;;20.43;;
5026;SDS011;2532;52.480;13.354;2023-12-07T05:19:57;42.47;;;22.67;;
5026;SDS011;2532;52.480;13.354;2023-12-07T05:22:24;43.43;;;20.97;;
5026;SDS011;2532;52.480;13.354;2023-12-07T05:24:51;42.67;;;21.00;;
5026;SDS011;2532;52.480;13.354;2023-12-07T05:27:18;40.77;;;22.87;;
5026;SDS011;2532;52.480;13.354;2023-12-07T05:29:45;44.17;;;22.80;;
5026;SDS011;2532;52.480;13.354;2023-12-07T05:32:12;42.20;;;21.67;;
5026;SDS011;2532;52.480;13.354;2023-12-07T05:34:39;42.97;;;22.53;;
5026;SDS011;2532;52.480;13.354;2023-12-07T05:37:08;52.07;;;25.30;;
5026;SDS011;2532;52.480;13.354;2023-12-07T05:39:35;37.93;;;18.90;;
5026;SDS011;2532;52.480;13.354;2023-12-07T05:42:02;51.70;;;26.23;;
5026;SDS011;2532;52.480;13.354;2023-12-07T05:44:30;42.43;;;20.37;;
5026;SDS011;2532;52.480;13.354;2023-12-07T05:46:56;42.57;;;20.37;;
5026;SDS011;2532;52.480;13.354;2023-12-07T05:49:23;40.30;;;22.60;;
5026;SDS011;2532;52.480;13.354;2023-12-07T05:51:50;47.87;;;23.47;;
5026;SDS011;2532;52.480;13.354;2023-12-07T05:54:22;48.23;;;21.30;;
5026;SDS011;2532;52.480;13.354;2023-12-07T05:56:49;38.37;;;18.87;;
5026;SDS011;2532;52.480;13.354;2023-12-07T05:59:16;45.30;;;23.70;;
5026;SDS011;2532;52.480;13.354;2023-12-07T06:01:43;40.53;;;19.83;;
5026;SDS011;2532;52.480;13.354;2023-12-07T06:04:10;44.80;;;19.90;;
5026;SDS011;2532;52.480;13.354;2023-12-07T06:06:37;47.87;;;23.53;;
5026;SDS011;2532;52.480;13.354;2023-12-07T06:09:05;43.63;;;19.90;;
5026;SDS011;2532;52.480;13.354;2023-12-07T06:11:34;42.10;;;19.90;;
5026;SDS011;2532;52.480;13.354;2023-12-07T06:14:01;41.00;;;18.43;;
5026;SDS011;2532;52.480;13.354;2023-12-07T06:16:28;47.27;;;22.23;;
5026;SDS011;2532;52.480;13.354;2023-12-07T06:18:54;36.13;;;19.57;;
5026;SDS011;2532;52.480;13.354;2023-12-07T06:21:21;49.13;;;21.10;;
5026;SDS011;2532;52.480;13.354;2023-12-07T06:23:50;45.30;;;20.03;;
5026;SDS011;2532;52.480;13.354;2023-12-07T06:26:18;43.83;;;23.53;;
5026;SDS011;2532;52.480;13.354;2023-12-07T06:28:46;36.87;;;17.87;;
5026;SDS011;2532;52.480;13.354;2023-12-07T06:31:13;44.70;;;23.03;;
5026;SDS011;2532;52.480;13.354;2023-12-07T06:33:40;38.77;;;18.33;;
5026;SDS011;2532;52.480;13.354;2023-12-07T06:36:08;43.63;;;20.10;;
5026;SDS011;2532;52.480;13.354;2023-12-07T06:38:35;46.67;;;23.03;;
5026;SDS011;2532;52.480;13.354;2023-12-07T06:41:03;45.43;;;20.70;;
5026;SDS011;2532;52.480;13.354;2023-12-07T06:43:30;44.70;;;22.50;;
5026;SDS011;2532;52.480;13.354;2023-12-07T06:45:58;48.80;;;21.10;;
5026;SDS011;2532;52.480;13.354;2023-12-07T06:48:25;50.60;;;22.90;;
5026;SDS011;2532;52.480;13.354;2023-12-07T06:50:52;44.53;;;20.93;;
5026;SDS011;2532;52.480;13.354;2023-12-07T06:53:19;51.67;;;24.90;;
5026;SDS011;2532;52.480;13.354;2023-12-07T06:55:46;47.47;;;24.07;;
5026;SDS011;2532;52.480;13.354;2023-12-07T06:58:13;42.27;;;21.70;;
5026;SDS011;2532;52.480;13.354;2023-12-07T07:00:40;43.40;;;20.17;;
5026;SDS011;2532;52.480;13.354;2023-12-07T07:03:08;44.03;;;21.27;;
5026;SDS011;2532;52.480;13.354;2023-12-07T07:05:35;41.10;;;19.57;;
5026;SDS011;2532;52.480;13.354;2023-12-07T07:08:02;39.87;;;19.17;;
5026;SDS011;2532;52.480;13.354;2023-12-07T07:10:31;45.50;;;19.90;;
5026;SDS011;2532;52.480;13.354;2023-12-07T07:12:59;45.00;;;21.27;;
5026;SDS011;2532;52.480;13.354;2023-12-07T07:15:28;49.63;;;19.67;;
5026;SDS011;2532;52.480;13.354;2023-12-07T07:17:54;44.43;;;20.60;;
5026;SDS011;2532;52.480;13.354;2023-12-07T07:20:23;42.43;;;20.00;;
5026;SDS011;2532;52.480;13.354;2023-12-07T07:22:50;46.27;;;21.13;;
5026;SDS011;2532;52.480;13.354;2023-12-07T07:25:17;47.33;;;19.57;;
5026;SDS011;2532;52.480;13.354;2023-12-07T07:27:45;44.53;;;22.23;;
5026;SDS011;2532;52.480;13.354;2023-12-07T07:30:18;48.17;;;20.90;;
5026;SDS011;2532;52.480;13.354;2023-12-07T07:32:45;50.67;;;23.70;;
5026;SDS011;2532;52.480;13.354;2023-12-07T07:35:11;51.40;;;21.20;;
5026;SDS011;2532;52.480;13.354;2023-12-07T07:37:40;44.80;;;24.00;;
5026;SDS011;2532;52.480;13.354;2023-12-07T07:40:08;46.23;;;20.90;;
5026;SDS011;2532;52.480;13.354;2023-12-07T07:42:36;51.80;;;23.90;;
5026;SDS011;2532;52.480;13.354;2023-12-07T07:45:05;64.60;;;24.80;;
5026;SDS011;2532;52.480;13.354;2023-12-07T07:47:35;44.27;;;21.87;;
5026;SDS011;2532;52.480;13.354;2023-12-07T07:50:02;48.13;;;20.23;;
5026;SDS011;2532;52.480;13.354;2023-12-07T07:52:31;49.40;;;21.70;;
5026;SDS011;2532;52.480;13.354;2023-12-07T07:55:00;44.90;;;19.93;;
5026;SDS011;2532;52.480;13.354;2023-12-07T07:57:27;44.60;;;21.37;;
5026;SDS011;2532;52.480;13.354;2023-12-07T07:59:55;45.93;;;22.13;;
5026;SDS011;2532;52.480;13.354;2023-12-07T08:02:23;43.13;;;21.40;;
5026;SDS011;2532;52.480;13.354;2023-12-07T08:04:49;41.90;;;21.07;;
5026;SDS011;2532;52.480;13.354;2023-12-07T08:07:17;38.40;;;20.00;;
5026;SDS011;2532;52.480;13.354;2023-12-07T08:09:44;39.07;;;19.87;;
5026;SDS011;2532;52.480;13.354;2023-12-07T08:12:12;37.20;;;18.10;;
5026;SDS011;2532;52.480;13.354;2023-12-07T08:14:42;40.70;;;21.80;;
5026;SDS011;2532;52.480;13.354;2023-12-07T08:17:11;40.20;;;20.60;;
5026;SDS011;2532;52.480;13.354;2023-12-07T08:19:38;37.70;;;20.00;;
5026;SDS011;2532;52.480;13.354;2023-12-07T08:22:07;42.07;;;20.90;;
5026;SDS011;2532;52.480;13.354;2023-12-07T08:24:34;40.53;;;19.77;;
5026;SDS011;2532;52.480;13.354;2023-12-07T08:27:02;40.60;;;20.03;;
5026;SDS011;2532;52.480;13.354;2023-12-07T08:29:31;40.50;;;21.00;;
5026;SDS011;2532;52.480;13.354;2023-12-07T08:31:58;35.33;;;18.37;;
5026;SDS011;2532;52.480;13.354;2023-12-07T08:34:25;38.43;;;18.57;;
5026;SDS011;2532;52.480;13.354;2023-12-07T08:36:52;35.77;;;19.00;;
5026;SDS011;2532;52.480;13.354;2023-12-07T08:39:19;37.63;;;19.80;;
5026;SDS011;2532;52.480;13.354;2023-12-07T08:41:46;46.07;;;21.73;;
5026;SDS011;2532;52.480;13.354;2023-12-07T08:44:12;42.10;;;22.40;;
5026;SDS011;2532;52.480;13.354;2023-12-07T08:46:41;39.50;;;19.07;;
5026;SDS011;2532;52.480;13.354;2023-12-07T08:49:10;39.00;;;19.67;;
5026;SDS011;2532;52.480;13.354;2023-12-07T08:51:37;44.40;;;22.90;;
5026;SDS011;2532;52.480;13.354;2023-12-07T08:54:04;45.47;;;22.57;;
5026;SDS011;2532;52.480;13.354;2023-12-07T08:56:31;42.60;;;19.37;;
5026;SDS011;2532;52.480;13.354;2023-12-07T08:58:58;43.77;;;20.77;;
5026;SDS011;2532;52.480;13.354;2023-12-07T09:01:25;42.70;;;20.67;;
5026;SDS011;2532;52.480;13.354;2023-12-07T09:03:54;41.17;;;19.57;;
5026;SDS011;2532;52.480;13.354;2023-12-07T09:06:21;43.20;;;21.17;;
5026;SDS011;2532;52.480;13.354;2023-12-07T09:08:47;39.10;;;19.93;;
5026;SDS011;2532;52.480;13.354;2023-12-07T09:11:14;45.67;;;22.97;;
5026;SDS011;2532;52.480;13.354;2023-12-07T09:13:41;39.53;;;19.90;;
5026;SDS011;2532;52.480;13.354;2023-12-07T09:16:08;36.27;;;20.07;;
5026;SDS011;2532;52.480;13.354;2023-12-07T09:18:36;39.90;;;19.20;;
5026;SDS011;2532;52.480;13.354;2023-12-07T09:21:04;37.73;;;18.83;;
5026;SDS011;2532;52.480;13.354;2023-12-07T09:23:31;37.03;;;17.90;;
5026;SDS011;2532;52.480;13.354;2023-12-07T09:25:58;54.10;;;26.70;;
5026;SDS011;2532;52.480;13.354;2023-12-07T09:28:25;44.93;;;21.90;;
5026;SDS011;2532;52.480;13.354;2023-12-07T09:30:53;35.70;;;18.37;;
5026;SDS011;2532;52.480;13.354;2023-12-07T09:33:22;43.00;;;20.77;;
5026;SDS011;2532;52.480;13.354;2023-12-07T09:35:49;39.87;;;19.37;;
5026;SDS011;2532;52.480;13.354;2023-12-07T09:38:20;41.70;;;20.43;;
5026;SDS011;2532;52.480;13.354;2023-12-07T09:40:51;39.73;;;19.17;;
5026;SDS011;2532;52.480;13.354;2023-12-07T09:43:23;38.07;;;19.03;;
5026;SDS011;2532;52.480;13.354;2023-12-07T09:45:53;35.90;;;18.00;;
5026;SDS011;2532;52.480;13.354;2023-12-07T09:48:24;39.50;;;20.57;;
5026;SDS011;2532;52.480;13.354;2023-12-07T09:50:56;42.27;;;19.43;;
5026;SDS011;2532;52.480;13.354;2023-12-07T09:53:29;41.10;;;19.10;;
5026;SDS011;2532;52.480;13.354;2023-12-07T09:55:59;43.53;;;19.53;;
5026;SDS011;2532;52.480;13.354;2023-12-07T09:58:29;42.57;;;20.13;;
5026;SDS011;2532;52.480;13.354;2023-12-07T10:00:59;45.00;;;19.83;;
5026;SDS011;2532;52.480;13.354;2023-12-07T10:03:28;43.60;;;20.47;;
5026;SDS011;2532;52.480;13.354;2023-12-07T10:05:59;42.07;;;21.20;;
5026;SDS011;2532;52.480;13.354;2023-12-07T10:08:29;45.00;;;22.20;;
5026;SDS011;2532;52.480;13.354;2023-12-07T10:11:07;43.93;;;21.10;;
5026;SDS011;2532;52.480;13.354;2023-12-07T10:13:37;43.43;;;19.97;;
5026;SDS011;2532;52.480;13.354;2023-12-07T10:16:09;44.87;;;18.90;;
5026;SDS011;2532;52.480;13.354;2023-12-07T10:18:41;41.47;;;19.73;;
5026;SDS011;2532;52.480;13.354;2023-12-07T10:21:09;34.63;;;19.10;;
5026;SDS011;2532;52.480;13.354;2023-12-07T10:23:37;43.63;;;21.03;;
5026;SDS011;2532;52.480;13.354;2023-12-07T10:26:06;38.67;;;19.60;;
5026;SDS011;2532;52.480;13.354;2023-12-07T10:28:34;40.60;;;20.80;;
5026;SDS011;2532;52.480;13.354;2023-12-07T10:31:02;41.07;;;19.80;;
5026;SDS011;2532;52.480;13.354;2023-12-07T10:33:30;40.80;;;20.33;;
5026;SDS011;2532;52.480;13.354;2023-12-07T10:35:57;31.03;;;16.27;;
5026;SDS011;2532;52.480;13.354;2023-12-07T10:38:25;38.20;;;18.20;;
5026;SDS011;2532;52.480;13.354;2023-12-07T10:40:59;36.80;;;18.70;;
5026;SDS011;2532;52.480;13.354;2023-12-07T10:43:32;33.77;;;17.37;;
5026;SDS011;2532;52.480;13.354;2023-12-07T10:46:09;39.63;;;19.33;;
5026;SDS011;2532;52.480;13.354;2023-12-07T10:48:42;36.13;;;17.87;;
5026;SDS011;2532;52.480;13.354;2023-12-07T10:51:17;34.33;;;18.70;;
5026;SDS011;2532;52.480;13.354;2023-12-07T10:53:56;33.60;;;17.53;;
5026;SDS011;2532;52.480;13.354;2023-12-07T10:56:28;37.83;;;18.87;;
5026;SDS011;2532;52.480;13.354;2023-12-07T10:58:57;40.23;;;20.40;;
5026;SDS011;2532;52.480;13.354;2023-12-07T11:01:25;38.90;;;17.63;;
5026;SDS011;2532;52.480;13.354;2023-12-07T11:03:53;31.63;;;17.63;;
5026;SDS011;2532;52.480;13.354;2023-12-07T11:06:22;30.87;;;17.20;;
5026;SDS011;2532;52.480;13.354;2023-12-07T11:08:54;36.10;;;17.50;;
5026;SDS011;2532;52.480;13.354;2023-12-07T11:11:26;35.03;;;17.17;;
5026;SDS011;2532;52.480;13.354;2023-12-07T11:13:57;31.60;;;17.17;;
5026;SDS011;2532;52.480;13.354;2023-12-07T11:16:31;39.77;;;17.10;;
5026;SDS011;2532;52.480;13.354;2023-12-07T11:19:04;32.57;;;17.23;;
5026;SDS011;2532;52.480;13.354;2023-12-07T11:21:34;34.83;;;19.40;;
5026;SDS011;2532;52.480;13.354;2023-12-07T11:24:05;40.13;;;21.00;;
5026;SDS011;2532;52.480;13.354;2023-12-07T11:26:37;34.67;;;18.30;;
5026;SDS011;2532;52.480;13.354;2023-12-07T11:29:12;39.80;;;19.37;;
5026;SDS011;2532;52.480;13.354;2023-12-07T11:31:41;39.90;;;20.07;;
5026;SDS011;2532;52.480;13.354;2023-12-07T11:34:10;36.70;;;18.10;;
5026;SDS011;2532;52.480;13.354;2023-12-07T11:36:39;35.00;;;18.40;;
5026;SDS011;2532;52.480;13.354;2023-12-07T11:39:18;35.17;;;18.17;;
5026;SDS011;2532;52.480;13.354;2023-12-07T11:42:12;34.23;;;18.27;;
5026;SDS011;2532;52.480;13.354;2023-12-07T11:44:54;40.37;;;20.07;;
5026;SDS011;2532;52.480;13.354;2023-12-07T11:47:39;46.23;;;22.37;;
5026;SDS011;2532;52.480;13.354;2023-12-07T11:50:14;43.50;;;17.83;;
5026;SDS011;2532;52.480;13.354;2023-12-07T11:52:42;38.43;;;19.60;;
5026;SDS011;2532;52.480;13.354;2023-12-07T11:55:12;45.67;;;21.60;;
5026;SDS011;2532;52.480;13.354;2023-12-07T11:57:44;41.73;;;20.70;;
5026;SDS011;2532;52.480;13.354;2023-12-07T12:00:13;46.77;;;23.00;;
5026;SDS011;2532;52.480;13.354;2023-12-07T12:02:48;39.30;;;20.40;;
5026;SDS011;2532;52.480;13.354;2023-12-07T12:05:17;43.00;;;20.70;;
5026;SDS011;2532;52.480;13.354;2023-12-07T12:09:23;48.13;;;21.53;;
5026;SDS011;2532;52.480;13.354;2023-12-07T12:10:54;47.97;;;25.10;;
5026;SDS011;2532;52.480;13.354;2023-12-07T12:13:29;51.33;;;23.90;;
5026;SDS011;2532;52.480;13.354;2023-12-07T12:16:00;42.93;;;21.20;;
5026;SDS011;2532;52.480;13.354;2023-12-07T12:18:29;49.10;;;24.60;;
5026;SDS011;2532;52.480;13.354;2023-12-07T12:21:02;52.17;;;23.60;;
5026;SDS011;2532;52.480;13.354;2023-12-07T12:23:33;44.60;;;24.17;;
5026;SDS011;2532;52.480;13.354;2023-12-07T12:26:03;44.87;;;22.80;;
5026;SDS011;2532;52.480;13.354;2023-12-07T12:28:37;42.90;;;21.83;;
5026;SDS011;2532;52.480;13.354;2023-12-07T12:31:08;49.63;;;25.50;;
5026;SDS011;2532;52.480;13.354;2023-12-07T12:33:48;45.63;;;21.30;;
5026;SDS011;2532;52.480;13.354;2023-12-07T12:36:38;51.20;;;23.50;;
5026;SDS011;2532;52.480;13.354;2023-12-07T12:39:31;43.57;;;22.10;;
5026;SDS011;2532;52.480;13.354;2023-12-07T12:42:13;48.30;;;21.83;;
5026;SDS011;2532;52.480;13.354;2023-12-07T12:44:46;52.20;;;22.67;;
5026;SDS011;2532;52.480;13.354;2023-12-07T12:47:19;49.50;;;22.20;;
5026;SDS011;2532;52.480;13.354;2023-12-07T12:49:49;48.13;;;24.53;;
5026;SDS011;2532;52.480;13.354;2023-12-07T12:52:33;55.10;;;23.30;;
5026;SDS011;2532;52.480;13.354;2023-12-07T12:55:24;48.47;;;22.53;;
5026;SDS011;2532;52.480;13.354;2023-12-07T12:58:09;53.43;;;23.83;;
5026;SDS011;2532;52.480;13.354;2023-12-07T13:00:58;52.17;;;23.13;;
5026;SDS011;2532;52.480;13.354;2023-12-07T13:03:43;50.87;;;24.27;;
5026;SDS011;2532;52.480;13.354;2023-12-07T13:06:49;47.63;;;24.90;;
5026;SDS011;2532;52.480;13.354;2023-12-07T13:12:39;49.97;;;23.53;;
5026;SDS011;2532;52.480;13.354;2023-12-07T13:15:21;54.47;;;24.50;;
5026;SDS011;2532;52.480;13.354;2023-12-07T13:18:08;53.80;;;25.47;;
5026;SDS011;2532;52.480;13.354;2023-12-07T13:21:07;52.17;;;25.57;;
5026;SDS011;2532;52.480;13.354;2023-12-07T13:24:02;58.13;;;25.13;;
5026;SDS011;2532;52.480;13.354;2023-12-07T13:33:20;64.33;;;28.20;;
5026;SDS011;2532;52.480;13.354;2023-12-07T13:35:57;57.90;;;26.87;;
5026;SDS011;2532;52.480;13.354;2023-12-07T13:38:31;66.23;;;28.43;;
5026;SDS011;2532;52.480;13.354;2023-12-07T13:41:14;60.10;;;28.90;;
5026;SDS011;2532;52.480;13.354;2023-12-07T13:43:47;64.60;;;28.53;;
5026;SDS011;2532;52.480;13.354;2023-12-07T13:46:35;55.70;;;26.70;;
5026;SDS011;2532;52.480;13.354;2023-12-07T13:49:22;60.27;;;27.30;;
5026;SDS011;2532;52.480;13.354;2023-12-07T13:52:19;61.40;;;27.60;;
5026;SDS011;2532;52.480;13.354;2023-12-07T13:55:17;62.23;;;25.60;;
5026;SDS011;2532;52.480;13.354;2023-12-07T13:58:18;64.33;;;27.20;;
5026;SDS011;2532;52.480;13.354;2023-12-07T14:00:59;59.60;;;26.67;;
5026;SDS011;2532;52.480;13.354;2023-12-07T14:04:27;63.47;;;28.20;;
5026;SDS011;2532;52.480;13.354;2023-12-07T14:07:12;64.20;;;28.63;;
5026;SDS011;2532;52.480;13.354;2023-12-07T14:09:46;74.03;;;29.87;;
5026;SDS011;2532;52.480;13.354;2023-12-07T14:12:24;72.53;;;29.77;;
5026;SDS011;2532;52.480;13.354;2023-12-07T14:15:30;84.10;;;31.70;;
5026;SDS011;2532;52.480;13.354;2023-12-07T14:18:06;72.30;;;29.47;;
5026;SDS011;2532;52.480;13.354;2023-12-07T14:20:45;77.60;;;29.90;;
5026;SDS011;2532;52.480;13.354;2023-12-07T14:23:16;77.37;;;29.83;;
5026;SDS011;2532;52.480;13.354;2023-12-07T14:25:49;86.73;;;30.00;;
5026;SDS011;2532;52.480;13.354;2023-12-07T14:28:28;85.83;;;31.27;;
5026;SDS011;2532;52.480;13.354;2023-12-07T14:31:21;82.70;;;31.07;;
5026;SDS011;2532;52.480;13.354;2023-12-07T14:36:18;72.50;;;27.57;;
5026;SDS011;2532;52.480;13.354;2023-12-07T14:38:45;71.93;;;27.63;;
5026;SDS011;2532;52.480;13.354;2023-12-07T14:41:12;72.77;;;28.57;;
5026;SDS011;2532;52.480;13.354;2023-12-07T14:43:41;73.43;;;30.00;;
5026;SDS011;2532;52.480;13.354;2023-12-07T14:46:08;77.53;;;28.80;;
5026;SDS011;2532;52.480;13.354;2023-12-07T14:51:03;76.50;;;23.73;;
5026;SDS011;2532;52.480;13.354;2023-12-07T14:53:39;81.10;;;28.13;;
5026;SDS011;2532;52.480;13.354;2023-12-07T14:56:07;83.47;;;26.50;;
5026;SDS011;2532;52.480;13.354;2023-12-07T14:58:40;88.30;;;30.83;;
5026;SDS011;2532;52.480;13.354;2023-12-07T15:01:07;65.77;;;25.97;;
5026;SDS011;2532;52.480;13.354;2023-12-07T15:03:37;53.47;;;20.90;;
5026;SDS011;2532;52.480;13.354;2023-12-07T15:06:07;59.47;;;24.37;;
5026;SDS011;2532;52.480;13.354;2023-12-07T15:08:34;69.07;;;26.30;;